sensor_id;sensor_type;location;lat;lon;timestamp;temperature;humidity
46720;DHT22;32452;51.382;-0.002;2023-03-19T00:02:27;9.00;99.90
46720;DHT22;32452;51.382;-0.002;2023-03-19T00:05:12;8.90;99.90
46720;DHT22;32452;51.382;-0.002;2023-03-19T00:07:58;8.90;99.90
46720;DHT22;32452;51.382;-0.002;2023-03-19T00:10:43;8.90;99.90
46720;DHT22;32452;51.382;-0.002;2023-03-19T00:13:29;8.90;99.90
46720;DHT22;32452;51.382;-0.002;2023-03-19T00:16:14;8.80;99.90
46720;DHT22;32452;51.382;-0.002;2023-03-19T00:19:00;8.80;99.90
46720;DHT22;32452;51.382;-0.002;2023-03-19T00:21:46;8.80;99.90
46720;DHT22;32452;51.382;-0.002;2023-03-19T00:24:33;8.80;99.90
46720;DHT22;32452;51.382;-0.002;2023-03-19T00:27:18;8.80;99.90
46720;DHT22;32452;51.382;-0.002;2023-03-19T00:30:05;8.80;99.90
46720;DHT22;32452;51.382;-0.002;2023-03-19T00:32:51;8.80;99.90
46720;DHT22;32452;51.382;-0.002;2023-03-19T00:35:38;8.80;99.90
46720;DHT22;32452;51.382;-0.002;2023-03-19T00:38:24;8.80;99.90
46720;DHT22;32452;51.382;-0.002;2023-03-19T00:41:09;8.90;99.90
46720;DHT22;32452;51.382;-0.002;2023-03-19T00:43:56;9.00;99.90
46720;DHT22;32452;51.382;-0.002;2023-03-19T00:46:42;9.00;99.90
46720;DHT22;32452;51.382;-0.002;2023-03-19T00:49:28;9.10;99.90
46720;DHT22;32452;51.382;-0.002;2023-03-19T00:52:14;9.20;99.90
46720;DHT22;32452;51.382;-0.002;2023-03-19T00:54:59;9.20;99.90
46720;DHT22;32452;51.382;-0.002;2023-03-19T00:57:45;9.20;99.90
46720;DHT22;32452;51.382;-0.002;2023-03-19T01:00:35;9.30;99.90
46720;DHT22;32452;51.382;-0.002;2023-03-19T01:03:21;9.30;99.90
46720;DHT22;32452;51.382;-0.002;2023-03-19T01:06:06;9.30;99.90
46720;DHT22;32452;51.382;-0.002;2023-03-19T01:08:52;9.30;99.90
46720;DHT22;32452;51.382;-0.002;2023-03-19T01:11:37;9.40;99.90
46720;DHT22;32452;51.382;-0.002;2023-03-19T01:14:23;9.40;99.90
46720;DHT22;32452;51.382;-0.002;2023-03-19T01:17:09;9.40;99.90
46720;DHT22;32452;51.382;-0.002;2023-03-19T01:19:54;9.40;99.90
46720;DHT22;32452;51.382;-0.002;2023-03-19T01:22:41;9.40;99.90
46720;DHT22;32452;51.382;-0.002;2023-03-19T01:25:28;9.50;99.90
46720;DHT22;32452;51.382;-0.002;2023-03-19T01:28:14;9.50;99.90
46720;DHT22;32452;51.382;-0.002;2023-03-19T01:31:01;9.50;99.90
46720;DHT22;32452;51.382;-0.002;2023-03-19T01:33:49;9.50;99.90
46720;DHT22;32452;51.382;-0.002;2023-03-19T01:36:35;9.50;99.90
46720;DHT22;32452;51.382;-0.002;2023-03-19T01:39:21;9.50;99.90
46720;DHT22;32452;51.382;-0.002;2023-03-19T01:42:07;9.60;99.90
46720;DHT22;32452;51.382;-0.002;2023-03-19T01:44:52;9.50;99.90
46720;DHT22;32452;51.382;-0.002;2023-03-19T01:47:40;9.60;99.90
46720;DHT22;32452;51.382;-0.002;2023-03-19T01:50:36;9.50;99.90
46720;DHT22;32452;51.382;-0.002;2023-03-19T01:53:27;9.50;99.90
46720;DHT22;32452;51.382;-0.002;2023-03-19T01:56:26;9.50;99.90
46720;DHT22;32452;51.382;-0.002;2023-03-19T01:59:24;9.50;99.90
46720;DHT22;32452;51.382;-0.002;2023-03-19T02:02:32;9.50;99.90
46720;DHT22;32452;51.382;-0.002;2023-03-19T02:05:19;9.40;99.90
46720;DHT22;32452;51.382;-0.002;2023-03-19T02:08:12;9.40;99.90
46720;DHT22;32452;51.382;-0.002;2023-03-19T02:10:58;9.40;99.90
46720;DHT22;32452;51.382;-0.002;2023-03-19T02:13:45;9.40;99.90
46720;DHT22;32452;51.382;-0.002;2023-03-19T02:16:31;9.30;99.90
46720;DHT22;32452;51.382;-0.002;2023-03-19T02:22:28;9.30;99.90
46720;DHT22;32452;51.382;-0.002;2023-03-19T02:25:20;9.20;99.90
46720;DHT22;32452;51.382;-0.002;2023-03-19T02:28:08;9.20;99.90
46720;DHT22;32452;51.382;-0.002;2023-03-19T02:30:55;9.10;99.90
46720;DHT22;32452;51.382;-0.002;2023-03-19T02:33:41;9.10;99.90
46720;DHT22;32452;51.382;-0.002;2023-03-19T02:37:13;9.00;99.90
46720;DHT22;32452;51.382;-0.002;2023-03-19T02:39:56;9.00;99.90
46720;DHT22;32452;51.382;-0.002;2023-03-19T02:42:42;9.00;99.90
46720;DHT22;32452;51.382;-0.002;2023-03-19T02:45:29;9.00;99.90
46720;DHT22;32452;51.382;-0.002;2023-03-19T02:48:16;8.90;99.90
46720;DHT22;32452;51.382;-0.002;2023-03-19T02:51:01;8.90;99.90
46720;DHT22;32452;51.382;-0.002;2023-03-19T02:53:47;8.90;99.90
46720;DHT22;32452;51.382;-0.002;2023-03-19T02:56:34;8.80;99.90
46720;DHT22;32452;51.382;-0.002;2023-03-19T02:59:20;8.90;99.90
46720;DHT22;32452;51.382;-0.002;2023-03-19T03:02:06;8.80;99.90
46720;DHT22;32452;51.382;-0.002;2023-03-19T03:04:52;8.80;99.90
46720;DHT22;32452;51.382;-0.002;2023-03-19T03:07:38;8.80;99.90
46720;DHT22;32452;51.382;-0.002;2023-03-19T03:10:25;8.80;99.90
46720;DHT22;32452;51.382;-0.002;2023-03-19T03:13:10;8.80;99.90
46720;DHT22;32452;51.382;-0.002;2023-03-19T03:15:56;8.80;99.90
46720;DHT22;32452;51.382;-0.002;2023-03-19T03:18:41;8.70;99.90
46720;DHT22;32452;51.382;-0.002;2023-03-19T03:21:27;8.70;99.90
46720;DHT22;32452;51.382;-0.002;2023-03-19T03:24:14;8.70;99.90
46720;DHT22;32452;51.382;-0.002;2023-03-19T03:26:59;8.70;99.90
46720;DHT22;32452;51.382;-0.002;2023-03-19T03:29:45;8.60;99.90
46720;DHT22;32452;51.382;-0.002;2023-03-19T03:32:30;8.60;99.90
46720;DHT22;32452;51.382;-0.002;2023-03-19T03:35:16;8.60;99.90
46720;DHT22;32452;51.382;-0.002;2023-03-19T03:38:06;8.60;99.90
46720;DHT22;32452;51.382;-0.002;2023-03-19T03:40:52;8.60;99.90
46720;DHT22;32452;51.382;-0.002;2023-03-19T03:43:38;8.60;99.90
46720;DHT22;32452;51.382;-0.002;2023-03-19T03:46:25;8.60;99.90
46720;DHT22;32452;51.382;-0.002;2023-03-19T03:49:10;8.50;99.90
46720;DHT22;32452;51.382;-0.002;2023-03-19T03:51:56;8.50;99.90
46720;DHT22;32452;51.382;-0.002;2023-03-19T03:54:42;8.50;99.90
46720;DHT22;32452;51.382;-0.002;2023-03-19T03:57:27;8.50;99.90
46720;DHT22;32452;51.382;-0.002;2023-03-19T04:00:13;8.50;99.90
46720;DHT22;32452;51.382;-0.002;2023-03-19T04:02:58;8.50;99.90
46720;DHT22;32452;51.382;-0.002;2023-03-19T04:05:44;8.50;99.90
46720;DHT22;32452;51.382;-0.002;2023-03-19T04:08:30;8.50;99.90
46720;DHT22;32452;51.382;-0.002;2023-03-19T04:11:15;8.50;99.90
46720;DHT22;32452;51.382;-0.002;2023-03-19T04:14:01;8.40;99.90
46720;DHT22;32452;51.382;-0.002;2023-03-19T04:16:48;8.40;99.90
46720;DHT22;32452;51.382;-0.002;2023-03-19T04:19:33;8.40;99.90
46720;DHT22;32452;51.382;-0.002;2023-03-19T04:22:19;8.40;99.90
46720;DHT22;32452;51.382;-0.002;2023-03-19T04:25:05;8.40;99.90
46720;DHT22;32452;51.382;-0.002;2023-03-19T04:27:52;8.40;99.90
46720;DHT22;32452;51.382;-0.002;2023-03-19T04:30:38;8.40;99.90
46720;DHT22;32452;51.382;-0.002;2023-03-19T04:33:24;8.30;99.90
46720;DHT22;32452;51.382;-0.002;2023-03-19T04:36:09;8.40;99.90
46720;DHT22;32452;51.382;-0.002;2023-03-19T04:38:55;8.40;99.90
46720;DHT22;32452;51.382;-0.002;2023-03-19T04:41:41;8.40;99.90
46720;DHT22;32452;51.382;-0.002;2023-03-19T04:44:26;8.40;99.90
46720;DHT22;32452;51.382;-0.002;2023-03-19T04:47:12;8.40;99.90
46720;DHT22;32452;51.382;-0.002;2023-03-19T04:49:58;8.40;99.90
46720;DHT22;32452;51.382;-0.002;2023-03-19T04:52:43;8.30;99.90
46720;DHT22;32452;51.382;-0.002;2023-03-19T04:55:29;8.30;99.90
46720;DHT22;32452;51.382;-0.002;2023-03-19T04:58:14;8.30;99.90
46720;DHT22;32452;51.382;-0.002;2023-03-19T05:01:00;8.30;99.90
46720;DHT22;32452;51.382;-0.002;2023-03-19T05:03:46;8.30;99.90
46720;DHT22;32452;51.382;-0.002;2023-03-19T05:06:31;8.30;99.90
46720;DHT22;32452;51.382;-0.002;2023-03-19T05:09:17;8.20;99.90
46720;DHT22;32452;51.382;-0.002;2023-03-19T05:12:02;8.20;99.90
46720;DHT22;32452;51.382;-0.002;2023-03-19T05:14:48;8.20;99.90
46720;DHT22;32452;51.382;-0.002;2023-03-19T05:17:33;8.10;99.90
46720;DHT22;32452;51.382;-0.002;2023-03-19T05:20:20;8.00;99.90
46720;DHT22;32452;51.382;-0.002;2023-03-19T05:23:06;8.00;99.90
46720;DHT22;32452;51.382;-0.002;2023-03-19T05:25:51;7.90;99.90
46720;DHT22;32452;51.382;-0.002;2023-03-19T05:28:37;7.90;99.90
46720;DHT22;32452;51.382;-0.002;2023-03-19T05:31:24;7.90;99.90
46720;DHT22;32452;51.382;-0.002;2023-03-19T05:34:09;7.80;99.90
46720;DHT22;32452;51.382;-0.002;2023-03-19T05:36:55;7.70;99.90
46720;DHT22;32452;51.382;-0.002;2023-03-19T05:39:40;7.70;99.90
46720;DHT22;32452;51.382;-0.002;2023-03-19T05:42:25;7.60;99.90
46720;DHT22;32452;51.382;-0.002;2023-03-19T05:45:11;7.50;99.90
46720;DHT22;32452;51.382;-0.002;2023-03-19T05:47:57;7.50;99.90
46720;DHT22;32452;51.382;-0.002;2023-03-19T05:50:43;7.40;99.90
46720;DHT22;32452;51.382;-0.002;2023-03-19T05:53:29;7.40;99.90
46720;DHT22;32452;51.382;-0.002;2023-03-19T05:56:14;7.30;99.90
46720;DHT22;32452;51.382;-0.002;2023-03-19T05:59:00;7.20;99.90
46720;DHT22;32452;51.382;-0.002;2023-03-19T06:01:46;7.20;99.90
46720;DHT22;32452;51.382;-0.002;2023-03-19T06:04:31;7.20;99.90
46720;DHT22;32452;51.382;-0.002;2023-03-19T06:07:16;7.10;99.90
46720;DHT22;32452;51.382;-0.002;2023-03-19T06:10:03;7.00;99.90
46720;DHT22;32452;51.382;-0.002;2023-03-19T06:12:49;7.10;99.90
46720;DHT22;32452;51.382;-0.002;2023-03-19T06:15:35;7.10;99.90
46720;DHT22;32452;51.382;-0.002;2023-03-19T06:18:21;7.20;99.90
46720;DHT22;32452;51.382;-0.002;2023-03-19T06:21:08;7.20;99.90
46720;DHT22;32452;51.382;-0.002;2023-03-19T06:23:56;7.20;99.90
46720;DHT22;32452;51.382;-0.002;2023-03-19T06:26:42;7.20;99.90
46720;DHT22;32452;51.382;-0.002;2023-03-19T06:29:27;7.20;99.90
46720;DHT22;32452;51.382;-0.002;2023-03-19T06:32:13;7.20;99.90
46720;DHT22;32452;51.382;-0.002;2023-03-19T06:34:58;7.30;99.90
46720;DHT22;32452;51.382;-0.002;2023-03-19T06:37:44;7.40;99.90
46720;DHT22;32452;51.382;-0.002;2023-03-19T06:40:29;7.50;99.90
46720;DHT22;32452;51.382;-0.002;2023-03-19T06:43:15;7.50;99.90
46720;DHT22;32452;51.382;-0.002;2023-03-19T06:46:02;7.60;99.90
46720;DHT22;32452;51.382;-0.002;2023-03-19T06:48:48;7.60;99.90
46720;DHT22;32452;51.382;-0.002;2023-03-19T06:51:34;7.60;99.90
46720;DHT22;32452;51.382;-0.002;2023-03-19T06:54:20;7.70;99.90
46720;DHT22;32452;51.382;-0.002;2023-03-19T06:57:06;7.70;99.90
46720;DHT22;32452;51.382;-0.002;2023-03-19T06:59:51;7.80;99.90
46720;DHT22;32452;51.382;-0.002;2023-03-19T07:02:37;7.90;99.90
46720;DHT22;32452;51.382;-0.002;2023-03-19T07:05:23;7.90;99.90
46720;DHT22;32452;51.382;-0.002;2023-03-19T07:08:08;8.00;99.90
46720;DHT22;32452;51.382;-0.002;2023-03-19T07:10:56;8.00;99.90
46720;DHT22;32452;51.382;-0.002;2023-03-19T07:13:42;8.10;99.90
46720;DHT22;32452;51.382;-0.002;2023-03-19T07:16:27;8.10;99.90
46720;DHT22;32452;51.382;-0.002;2023-03-19T07:19:13;8.20;99.90
46720;DHT22;32452;51.382;-0.002;2023-03-19T07:21:59;8.20;99.90
46720;DHT22;32452;51.382;-0.002;2023-03-19T07:24:44;8.30;99.90
46720;DHT22;32452;51.382;-0.002;2023-03-19T07:27:30;8.30;99.90
46720;DHT22;32452;51.382;-0.002;2023-03-19T07:30:15;8.30;99.90
46720;DHT22;32452;51.382;-0.002;2023-03-19T07:33:01;8.40;99.90
46720;DHT22;32452;51.382;-0.002;2023-03-19T07:35:47;8.50;99.90
46720;DHT22;32452;51.382;-0.002;2023-03-19T07:38:33;8.50;99.90
46720;DHT22;32452;51.382;-0.002;2023-03-19T07:41:19;8.50;99.90
46720;DHT22;32452;51.382;-0.002;2023-03-19T07:44:04;8.50;99.90
46720;DHT22;32452;51.382;-0.002;2023-03-19T07:46:50;8.60;99.90
46720;DHT22;32452;51.382;-0.002;2023-03-19T07:49:36;8.70;99.90
46720;DHT22;32452;51.382;-0.002;2023-03-19T07:52:22;8.70;99.90
46720;DHT22;32452;51.382;-0.002;2023-03-19T07:55:08;8.70;99.90
46720;DHT22;32452;51.382;-0.002;2023-03-19T07:57:53;8.70;99.90
46720;DHT22;32452;51.382;-0.002;2023-03-19T08:00:39;8.70;99.90
46720;DHT22;32452;51.382;-0.002;2023-03-19T08:03:25;8.70;99.90
46720;DHT22;32452;51.382;-0.002;2023-03-19T08:06:10;8.60;99.90
46720;DHT22;32452;51.382;-0.002;2023-03-19T08:08:56;8.60;99.90
46720;DHT22;32452;51.382;-0.002;2023-03-19T08:11:42;8.60;99.90
46720;DHT22;32452;51.382;-0.002;2023-03-19T08:14:27;8.60;99.90
46720;DHT22;32452;51.382;-0.002;2023-03-19T08:17:12;8.60;99.90
46720;DHT22;32452;51.382;-0.002;2023-03-19T08:19:58;8.60;99.90
46720;DHT22;32452;51.382;-0.002;2023-03-19T08:22:48;8.60;99.90
46720;DHT22;32452;51.382;-0.002;2023-03-19T08:25:34;8.70;99.90
46720;DHT22;32452;51.382;-0.002;2023-03-19T08:28:20;8.60;99.90
46720;DHT22;32452;51.382;-0.002;2023-03-19T08:31:11;8.70;99.90
46720;DHT22;32452;51.382;-0.002;2023-03-19T08:33:57;8.70;99.90
46720;DHT22;32452;51.382;-0.002;2023-03-19T08:36:47;8.70;99.90
46720;DHT22;32452;51.382;-0.002;2023-03-19T08:39:33;8.80;99.90
46720;DHT22;32452;51.382;-0.002;2023-03-19T08:42:19;8.80;99.90
46720;DHT22;32452;51.382;-0.002;2023-03-19T08:45:08;8.90;99.90
46720;DHT22;32452;51.382;-0.002;2023-03-19T08:47:54;8.90;99.90
46720;DHT22;32452;51.382;-0.002;2023-03-19T08:50:40;9.00;99.90
46720;DHT22;32452;51.382;-0.002;2023-03-19T08:53:25;9.00;99.90
46720;DHT22;32452;51.382;-0.002;2023-03-19T08:56:11;9.10;99.90
46720;DHT22;32452;51.382;-0.002;2023-03-19T08:58:56;9.10;99.90
46720;DHT22;32452;51.382;-0.002;2023-03-19T09:01:42;9.20;99.90
46720;DHT22;32452;51.382;-0.002;2023-03-19T09:04:28;9.30;99.90
46720;DHT22;32452;51.382;-0.002;2023-03-19T09:07:14;9.40;99.90
46720;DHT22;32452;51.382;-0.002;2023-03-19T09:10:00;9.40;99.90
46720;DHT22;32452;51.382;-0.002;2023-03-19T09:12:46;9.50;99.90
46720;DHT22;32452;51.382;-0.002;2023-03-19T09:15:33;9.60;99.80
46720;DHT22;32452;51.382;-0.002;2023-03-19T09:18:19;9.70;99.50
46720;DHT22;32452;51.382;-0.002;2023-03-19T09:21:10;9.70;99.20
46720;DHT22;32452;51.382;-0.002;2023-03-19T09:23:56;9.80;99.10
46720;DHT22;32452;51.382;-0.002;2023-03-19T09:26:42;9.90;99.20
46720;DHT22;32452;51.382;-0.002;2023-03-19T09:29:27;10.00;99.10
46720;DHT22;32452;51.382;-0.002;2023-03-19T09:32:13;10.20;98.90
46720;DHT22;32452;51.382;-0.002;2023-03-19T09:34:59;10.30;98.60
46720;DHT22;32452;51.382;-0.002;2023-03-19T09:37:44;10.50;98.30
46720;DHT22;32452;51.382;-0.002;2023-03-19T09:40:45;10.70;97.80
46720;DHT22;32452;51.382;-0.002;2023-03-19T09:47:03;11.00;96.30
46720;DHT22;32452;51.382;-0.002;2023-03-19T09:49:56;11.10;95.60
46720;DHT22;32452;51.382;-0.002;2023-03-19T09:55:59;11.00;94.20
46720;DHT22;32452;51.382;-0.002;2023-03-19T09:58:47;10.90;94.00
46720;DHT22;32452;51.382;-0.002;2023-03-19T10:01:35;10.90;93.90
46720;DHT22;32452;51.382;-0.002;2023-03-19T10:16:24;11.00;93.00
46720;DHT22;32452;51.382;-0.002;2023-03-19T10:19:14;11.00;92.70
46720;DHT22;32452;51.382;-0.002;2023-03-19T10:22:04;11.00;92.50
46720;DHT22;32452;51.382;-0.002;2023-03-19T10:24:53;11.00;92.20
46720;DHT22;32452;51.382;-0.002;2023-03-19T10:27:44;11.00;92.00
46720;DHT22;32452;51.382;-0.002;2023-03-19T10:30:32;10.90;91.70
46720;DHT22;32452;51.382;-0.002;2023-03-19T10:33:23;10.90;91.50
46720;DHT22;32452;51.382;-0.002;2023-03-19T10:36:11;10.90;91.20
46720;DHT22;32452;51.382;-0.002;2023-03-19T10:39:00;10.90;91.20
46720;DHT22;32452;51.382;-0.002;2023-03-19T10:47:56;10.80;90.30
46720;DHT22;32452;51.382;-0.002;2023-03-19T10:59:09;10.80;89.40
46720;DHT22;32452;51.382;-0.002;2023-03-19T11:02:16;10.80;88.50
46720;DHT22;32452;51.382;-0.002;2023-03-19T11:05:28;10.90;90.10
46720;DHT22;32452;51.382;-0.002;2023-03-19T11:08:18;10.90;90.10
46720;DHT22;32452;51.382;-0.002;2023-03-19T11:14:41;10.90;89.70
46720;DHT22;32452;51.382;-0.002;2023-03-19T11:17:45;10.80;88.20
46720;DHT22;32452;51.382;-0.002;2023-03-19T11:20:34;10.70;87.30
46720;DHT22;32452;51.382;-0.002;2023-03-19T11:23:19;10.70;87.00
46720;DHT22;32452;51.382;-0.002;2023-03-19T11:26:05;10.80;87.00
46720;DHT22;32452;51.382;-0.002;2023-03-19T11:28:51;10.80;86.70
46720;DHT22;32452;51.382;-0.002;2023-03-19T11:31:40;10.80;85.40
46720;DHT22;32452;51.382;-0.002;2023-03-19T11:37:54;10.80;85.20
46720;DHT22;32452;51.382;-0.002;2023-03-19T11:44:00;10.80;85.20
46720;DHT22;32452;51.382;-0.002;2023-03-19T11:53:31;11.10;84.40
46720;DHT22;32452;51.382;-0.002;2023-03-19T11:56:42;11.20;84.20
46720;DHT22;32452;51.382;-0.002;2023-03-19T12:08:51;11.60;83.20
46720;DHT22;32452;51.382;-0.002;2023-03-19T12:15:22;11.60;82.50
46720;DHT22;32452;51.382;-0.002;2023-03-19T12:21:27;11.80;80.40
46720;DHT22;32452;51.382;-0.002;2023-03-19T12:24:29;11.90;80.20
46720;DHT22;32452;51.382;-0.002;2023-03-19T12:27:55;12.00;80.00
46720;DHT22;32452;51.382;-0.002;2023-03-19T12:33:43;12.10;79.40
46720;DHT22;32452;51.382;-0.002;2023-03-19T12:36:40;12.10;79.80
46720;DHT22;32452;51.382;-0.002;2023-03-19T12:39:36;12.10;79.70
46720;DHT22;32452;51.382;-0.002;2023-03-19T12:42:29;11.90;79.70
46720;DHT22;32452;51.382;-0.002;2023-03-19T12:48:27;11.80;79.90
46720;DHT22;32452;51.382;-0.002;2023-03-19T12:51:18;11.70;79.50
46720;DHT22;32452;51.382;-0.002;2023-03-19T12:54:13;11.80;79.70
46720;DHT22;32452;51.382;-0.002;2023-03-19T12:57:16;11.80;79.30
46720;DHT22;32452;51.382;-0.002;2023-03-19T13:00:33;11.90;79.70
46720;DHT22;32452;51.382;-0.002;2023-03-19T13:06:46;12.10;78.80
46720;DHT22;32452;51.382;-0.002;2023-03-19T13:09:39;12.50;78.90
46720;DHT22;32452;51.382;-0.002;2023-03-19T13:12:29;12.70;78.10
46720;DHT22;32452;51.382;-0.002;2023-03-19T13:18:24;12.80;76.10
46720;DHT22;32452;51.382;-0.002;2023-03-19T13:26:51;12.70;74.50
46720;DHT22;32452;51.382;-0.002;2023-03-19T13:35:51;12.80;74.00
46720;DHT22;32452;51.382;-0.002;2023-03-19T13:38:38;12.80;73.70
46720;DHT22;32452;51.382;-0.002;2023-03-19T13:44:32;12.80;73.10
46720;DHT22;32452;51.382;-0.002;2023-03-19T13:50:27;12.90;72.70
46720;DHT22;32452;51.382;-0.002;2023-03-19T13:53:22;12.90;72.00
46720;DHT22;32452;51.382;-0.002;2023-03-19T13:56:17;12.80;72.20
46720;DHT22;32452;51.382;-0.002;2023-03-19T13:59:24;12.70;71.30
46720;DHT22;32452;51.382;-0.002;2023-03-19T14:05:17;12.60;71.70
46720;DHT22;32452;51.382;-0.002;2023-03-19T14:08:18;12.50;71.70
46720;DHT22;32452;51.382;-0.002;2023-03-19T14:11:04;12.50;71.90
46720;DHT22;32452;51.382;-0.002;2023-03-19T14:13:52;12.50;72.00
46720;DHT22;32452;51.382;-0.002;2023-03-19T14:16:42;12.60;72.50
46720;DHT22;32452;51.382;-0.002;2023-03-19T14:19:30;12.60;72.00
46720;DHT22;32452;51.382;-0.002;2023-03-19T14:29:01;12.70;71.30
46720;DHT22;32452;51.382;-0.002;2023-03-19T14:31:54;12.70;71.30
46720;DHT22;32452;51.382;-0.002;2023-03-19T14:34:42;12.60;71.30
46720;DHT22;32452;51.382;-0.002;2023-03-19T14:40:25;12.50;70.40
46720;DHT22;32452;51.382;-0.002;2023-03-19T14:52:34;12.30;70.60
46720;DHT22;32452;51.382;-0.002;2023-03-19T14:55:21;12.20;71.00
46720;DHT22;32452;51.382;-0.002;2023-03-19T14:58:13;12.20;71.40
46720;DHT22;32452;51.382;-0.002;2023-03-19T15:00:58;12.10;71.30
46720;DHT22;32452;51.382;-0.002;2023-03-19T15:03:45;12.00;71.60
46720;DHT22;32452;51.382;-0.002;2023-03-19T15:06:38;12.00;71.40
46720;DHT22;32452;51.382;-0.002;2023-03-19T15:09:29;12.00;71.30
46720;DHT22;32452;51.382;-0.002;2023-03-19T15:18:16;11.90;72.10
46720;DHT22;32452;51.382;-0.002;2023-03-19T15:21:04;11.90;72.60
46720;DHT22;32452;51.382;-0.002;2023-03-19T15:23:50;11.90;72.70
46720;DHT22;32452;51.382;-0.002;2023-03-19T15:26:36;11.90;72.50
46720;DHT22;32452;51.382;-0.002;2023-03-19T15:29:32;12.00;71.90
46720;DHT22;32452;51.382;-0.002;2023-03-19T15:32:38;12.00;71.30
46720;DHT22;32452;51.382;-0.002;2023-03-19T15:35:44;12.00;71.30
46720;DHT22;32452;51.382;-0.002;2023-03-19T15:38:35;12.00;71.30
46720;DHT22;32452;51.382;-0.002;2023-03-19T15:41:24;12.00;71.00
46720;DHT22;32452;51.382;-0.002;2023-03-19T15:44:35;12.00;71.10
46720;DHT22;32452;51.382;-0.002;2023-03-19T15:47:22;12.00;71.30
46720;DHT22;32452;51.382;-0.002;2023-03-19T15:50:15;11.90;71.60
46720;DHT22;32452;51.382;-0.002;2023-03-19T15:53:14;11.90;71.60
46720;DHT22;32452;51.382;-0.002;2023-03-19T15:56:03;11.90;71.90
46720;DHT22;32452;51.382;-0.002;2023-03-19T15:58:51;11.90;72.20
46720;DHT22;32452;51.382;-0.002;2023-03-19T16:01:39;11.90;72.40
46720;DHT22;32452;51.382;-0.002;2023-03-19T16:04:26;11.90;72.50
46720;DHT22;32452;51.382;-0.002;2023-03-19T16:07:38;12.00;71.90
46720;DHT22;32452;51.382;-0.002;2023-03-19T16:10:39;12.00;71.40
46720;DHT22;32452;51.382;-0.002;2023-03-19T16:13:36;12.00;71.30
46720;DHT22;32452;51.382;-0.002;2023-03-19T16:16:23;12.00;71.40
46720;DHT22;32452;51.382;-0.002;2023-03-19T16:22:20;11.90;71.30
46720;DHT22;32452;51.382;-0.002;2023-03-19T16:25:15;11.80;71.30
46720;DHT22;32452;51.382;-0.002;2023-03-19T16:28:05;11.80;71.20
46720;DHT22;32452;51.382;-0.002;2023-03-19T16:30:51;11.70;71.10
46720;DHT22;32452;51.382;-0.002;2023-03-19T16:33:37;11.70;71.10
46720;DHT22;32452;51.382;-0.002;2023-03-19T16:36:27;11.70;71.10
46720;DHT22;32452;51.382;-0.002;2023-03-19T16:42:26;11.70;71.30
46720;DHT22;32452;51.382;-0.002;2023-03-19T16:48:02;11.70;71.10
46720;DHT22;32452;51.382;-0.002;2023-03-19T16:50:48;11.60;70.70
46720;DHT22;32452;51.382;-0.002;2023-03-19T16:53:34;11.60;70.60
46720;DHT22;32452;51.382;-0.002;2023-03-19T16:56:20;11.60;70.40
46720;DHT22;32452;51.382;-0.002;2023-03-19T16:59:11;11.60;70.20
46720;DHT22;32452;51.382;-0.002;2023-03-19T17:02:09;11.60;70.20
46720;DHT22;32452;51.382;-0.002;2023-03-19T17:04:55;11.60;70.40
46720;DHT22;32452;51.382;-0.002;2023-03-19T17:07:41;11.50;70.60
46720;DHT22;32452;51.382;-0.002;2023-03-19T17:10:28;11.50;70.90
46720;DHT22;32452;51.382;-0.002;2023-03-19T17:13:23;11.50;71.10
46720;DHT22;32452;51.382;-0.002;2023-03-19T17:16:13;11.40;71.20
46720;DHT22;32452;51.382;-0.002;2023-03-19T17:18:59;11.40;71.20
46720;DHT22;32452;51.382;-0.002;2023-03-19T17:21:46;11.40;71.30
46720;DHT22;32452;51.382;-0.002;2023-03-19T17:24:33;11.30;71.20
46720;DHT22;32452;51.382;-0.002;2023-03-19T17:27:19;11.30;71.30
46720;DHT22;32452;51.382;-0.002;2023-03-19T17:30:05;11.30;71.50
46720;DHT22;32452;51.382;-0.002;2023-03-19T17:32:51;11.20;71.50
46720;DHT22;32452;51.382;-0.002;2023-03-19T17:35:39;11.20;71.60
46720;DHT22;32452;51.382;-0.002;2023-03-19T17:38:30;11.20;71.70
46720;DHT22;32452;51.382;-0.002;2023-03-19T17:41:17;11.20;71.70
46720;DHT22;32452;51.382;-0.002;2023-03-19T17:44:04;11.20;72.20
46720;DHT22;32452;51.382;-0.002;2023-03-19T17:46:52;11.10;72.30
46720;DHT22;32452;51.382;-0.002;2023-03-19T17:49:39;11.10;72.70
46720;DHT22;32452;51.382;-0.002;2023-03-19T17:52:26;11.10;73.00
46720;DHT22;32452;51.382;-0.002;2023-03-19T17:55:22;11.10;73.50
46720;DHT22;32452;51.382;-0.002;2023-03-19T17:58:17;11.00;73.90
46720;DHT22;32452;51.382;-0.002;2023-03-19T18:01:09;11.00;74.40
46720;DHT22;32452;51.382;-0.002;2023-03-19T18:03:56;11.00;74.70
46720;DHT22;32452;51.382;-0.002;2023-03-19T18:06:47;10.90;74.90
46720;DHT22;32452;51.382;-0.002;2023-03-19T18:09:34;10.90;75.20
46720;DHT22;32452;51.382;-0.002;2023-03-19T18:12:19;10.90;75.50
46720;DHT22;32452;51.382;-0.002;2023-03-19T18:15:05;10.90;75.70
46720;DHT22;32452;51.382;-0.002;2023-03-19T18:17:54;10.90;76.10
46720;DHT22;32452;51.382;-0.002;2023-03-19T18:20:40;10.80;76.30
46720;DHT22;32452;51.382;-0.002;2023-03-19T18:23:26;10.80;76.60
46720;DHT22;32452;51.382;-0.002;2023-03-19T18:26:12;10.70;76.70
46720;DHT22;32452;51.382;-0.002;2023-03-19T18:28:58;10.70;77.00
46720;DHT22;32452;51.382;-0.002;2023-03-19T18:31:44;10.70;77.20
46720;DHT22;32452;51.382;-0.002;2023-03-19T18:34:32;10.70;77.60
46720;DHT22;32452;51.382;-0.002;2023-03-19T18:37:17;10.60;77.60
46720;DHT22;32452;51.382;-0.002;2023-03-19T18:40:03;10.70;77.90
46720;DHT22;32452;51.382;-0.002;2023-03-19T18:42:49;10.60;78.00
46720;DHT22;32452;51.382;-0.002;2023-03-19T18:45:36;10.60;78.20
46720;DHT22;32452;51.382;-0.002;2023-03-19T18:48:26;10.60;78.40
46720;DHT22;32452;51.382;-0.002;2023-03-19T18:51:12;10.60;78.60
46720;DHT22;32452;51.382;-0.002;2023-03-19T18:53:57;10.60;78.70
46720;DHT22;32452;51.382;-0.002;2023-03-19T18:56:43;10.60;78.80
46720;DHT22;32452;51.382;-0.002;2023-03-19T18:59:30;10.60;79.00
46720;DHT22;32452;51.382;-0.002;2023-03-19T19:02:31;10.50;79.10
46720;DHT22;32452;51.382;-0.002;2023-03-19T19:05:26;10.50;79.30
46720;DHT22;32452;51.382;-0.002;2023-03-19T19:08:18;10.50;79.40
46720;DHT22;32452;51.382;-0.002;2023-03-19T19:11:05;10.40;79.50
46720;DHT22;32452;51.382;-0.002;2023-03-19T19:13:54;10.40;79.70
46720;DHT22;32452;51.382;-0.002;2023-03-19T19:16:41;10.30;80.50
46720;DHT22;32452;51.382;-0.002;2023-03-19T19:19:27;10.30;79.90
46720;DHT22;32452;51.382;-0.002;2023-03-19T19:22:17;10.20;80.10
46720;DHT22;32452;51.382;-0.002;2023-03-19T19:25:03;10.20;80.30
46720;DHT22;32452;51.382;-0.002;2023-03-19T19:27:58;10.20;80.50
46720;DHT22;32452;51.382;-0.002;2023-03-19T19:30:46;10.10;80.70
46720;DHT22;32452;51.382;-0.002;2023-03-19T19:33:33;10.10;80.90
46720;DHT22;32452;51.382;-0.002;2023-03-19T19:36:20;10.10;81.10
46720;DHT22;32452;51.382;-0.002;2023-03-19T19:39:06;10.00;81.30
46720;DHT22;32452;51.382;-0.002;2023-03-19T19:41:53;10.00;81.60
46720;DHT22;32452;51.382;-0.002;2023-03-19T19:44:40;10.00;81.90
46720;DHT22;32452;51.382;-0.002;2023-03-19T19:47:26;10.00;82.90
46720;DHT22;32452;51.382;-0.002;2023-03-19T19:50:19;9.90;82.30
46720;DHT22;32452;51.382;-0.002;2023-03-19T19:53:06;9.90;82.60
46720;DHT22;32452;51.382;-0.002;2023-03-19T19:55:52;9.90;82.70